Time;durP1;ratioP1;P1;durP2;ratioP2;P2;SDS_P1;SDS_P2;PMS_P1;PMS_P2;Temp;Humidity;BMP_temperature;BMP_pressure;BME280_temperature;BME280_humidity;BME280_pressure;Samples;Min_cycle;Max_cycle;Signal;HPM_P1;HPM_P2
2021/12/31 00:00:01;;;;;;;6.05;3.10;;;11.60;85.30;;;;;;5068767;28;20477;-81
2021/12/31 00:02:27;;;;;;;4.95;2.90;;;11.60;85.50;;;;;;5053017;28;20389;-82
2021/12/31 00:04:52;;;;;;;5.97;3.50;;;11.60;85.50;;;;;;5053042;28;20032;-83
2021/12/31 00:07:18;;;;;;;3.92;2.80;;;11.60;85.40;;;;;;5053200;28;20083;-82
2021/12/31 00:09:44;;;;;;;5.20;2.35;;;11.60;85.20;;;;;;5068654;28;20116;-83
2021/12/31 00:12:09;;;;;;;2.58;1.88;;;11.70;85.10;;;;;;5053131;28;20166;-83
2021/12/31 00:14:36;;;;;;;2.53;1.63;;;11.70;84.80;;;;;;5053171;28;20031;-83
2021/12/31 00:17:01;;;;;;;2.38;1.27;;;11.60;84.40;;;;;;5053027;28;20021;-81
2021/12/31 00:19:30;;;;;;;1.65;1.00;;;11.60;84.10;;;;;;5052895;28;20032;-83
2021/12/31 00:21:57;;;;;;;3.47;1.30;;;11.60;83.70;;;;;;5052824;28;20028;-83
2021/12/31 00:24:25;;;;;;;1.92;1.15;;;11.50;83.60;;;;;;5053000;28;20032;-81
2021/12/31 00:26:50;;;;;;;1.80;1.02;;;11.50;83.50;;;;;;5052800;28;20021;-82
2021/12/31 00:29:16;;;;;;;2.35;0.90;;;11.50;83.20;;;;;;5052732;28;20465;-82
2021/12/31 00:31:42;;;;;;;1.77;1.00;;;11.40;83.00;;;;;;5052947;28;20033;-82
2021/12/31 00:34:08;;;;;;;2.47;0.95;;;11.40;82.90;;;;;;5052419;28;20615;-83
2021/12/31 00:36:42;;;;;;;1.45;1.00;;;11.40;83.00;;;;;;5052874;28;20025;-82
2021/12/31 00:39:08;;;;;;;3.50;1.08;;;11.30;83.10;;;;;;5057007;28;20028;-80
2021/12/31 00:41:34;;;;;;;3.13;1.00;;;11.30;83.20;;;;;;5058861;28;20052;-82
2021/12/31 00:43:59;;;;;;;2.40;1.00;;;11.30;83.20;;;;;;5072340;28;20032;-81
2021/12/31 00:46:25;;;;;;;3.42;1.00;;;11.30;83.30;;;;;;5059226;28;20024;-82
2021/12/31 00:48:50;;;;;;;1.75;1.13;;;11.30;83.10;;;;;;5054615;28;20154;-81
2021/12/31 00:51:17;;;;;;;2.67;1.17;;;11.30;83.10;;;;;;5052633;28;20029;-81
2021/12/31 00:53:42;;;;;;;1.52;1.27;;;11.30;83.10;;;;;;5052766;28;20029;-82
2021/12/31 00:56:08;;;;;;;2.20;1.00;;;11.20;83.00;;;;;;5052898;28;20488;-82
2021/12/31 00:58:33;;;;;;;1.83;1.00;;;11.20;83.20;;;;;;5052649;28;20060;-82
2021/12/31 01:00:59;;;;;;;1.50;1.00;;;11.20;83.20;;;;;;5034783;28;20086;-81
2021/12/31 01:03:24;;;;;;;2.70;1.23;;;11.10;83.30;;;;;;5052308;28;20021;-83
2021/12/31 01:05:50;;;;;;;1.48;0.68;;;11.10;83.40;;;;;;5052388;28;20029;-82
2021/12/31 01:08:15;;;;;;;4.57;1.13;;;11.10;83.40;;;;;;5054355;28;20021;-82
2021/12/31 01:10:41;;;;;;;1.40;0.90;;;11.00;83.30;;;;;;5056140;28;20095;-82
2021/12/31 01:13:11;;;;;;;2.13;0.98;;;11.00;83.40;;;;;;5056106;28;20036;-82
2021/12/31 01:15:42;;;;;;;1.27;0.85;;;10.90;83.60;;;;;;5056120;28;20021;-82
2021/12/31 01:20:37;;;;;;;2.15;1.00;;;10.90;83.80;;;;;;5056254;28;20025;-83
2021/12/31 01:23:04;;;;;;;2.05;1.10;;;10.80;83.70;;;;;;5038326;28;20036;-81
2021/12/31 01:25:30;;;;;;;5.20;1.15;;;10.80;83.60;;;;;;5038254;28;20025;-83
2021/12/31 01:27:56;;;;;;;1.25;1.00;;;10.80;83.60;;;;;;5056010;28;20060;-83
2021/12/31 01:30:22;;;;;;;2.10;1.20;;;10.80;83.70;;;;;;5056078;28;20067;-81
2021/12/31 01:32:48;;;;;;;1.25;1.00;;;10.70;83.70;;;;;;5055702;28;20111;-81
2021/12/31 01:35:14;;;;;;;1.17;0.88;;;10.70;83.80;;;;;;5055828;28;20154;-83
2021/12/31 01:37:40;;;;;;;2.67;1.20;;;10.60;83.80;;;;;;5056337;28;20036;-82
2021/12/31 01:40:07;;;;;;;2.47;1.15;;;10.50;83.90;;;;;;5055668;28;20099;-82
2021/12/31 01:42:33;;;;;;;2.05;1.15;;;10.40;84.10;;;;;;5055707;28;20031;-78
2021/12/31 01:45:09;;;;;;;1.40;0.93;;;10.40;84.30;;;;;;5055454;28;20025;-81
2021/12/31 01:47:45;;;;;;;3.55;1.38;;;10.40;84.40;;;;;;5055353;28;20029;-78
2021/12/31 01:50:11;;;;;;;2.78;1.20;;;10.40;84.50;;;;;;5055382;28;20046;-79
2021/12/31 01:52:40;;;;;;;2.20;1.15;;;10.30;84.70;;;;;;5055254;28;20508;-79
2021/12/31 01:55:08;;;;;;;1.70;1.20;;;10.30;85.00;;;;;;5055350;28;20025;-81
2021/12/31 01:57:34;;;;;;;2.53;1.20;;;10.30;85.00;;;;;;5070894;28;20063;-80
2021/12/31 02:00:00;;;;;;;1.65;1.00;;;10.30;85.00;;;;;;5070876;28;20385;-81
2021/12/31 02:02:26;;;;;;;1.73;1.30;;;10.30;84.90;;;;;;5055248;28;20025;-81
2021/12/31 02:04:53;;;;;;;1.52;1.08;;;10.30;84.90;;;;;;5070795;28;20024;-81
2021/12/31 02:07:19;;;;;;;4.05;1.35;;;10.30;84.80;;;;;;5059175;28;20445;-73
2021/12/31 02:09:49;;;;;;;1.75;0.98;;;10.30;85.70;;;;;;5076373;28;20029;-81
2021/12/31 02:12:16;;;;;;;2.15;1.25;;;10.20;84.80;;;;;;5076853;28;20029;-77
2021/12/31 02:14:42;;;;;;;4.05;1.25;;;10.20;84.90;;;;;;5056119;28;20028;-82
2021/12/31 02:17:10;;;;;;;3.60;1.20;;;10.20;84.80;;;;;;5070463;28;20037;-82
2021/12/31 02:19:37;;;;;;;3.10;1.05;;;10.10;84.80;;;;;;5054909;28;20021;-81
2021/12/31 02:22:03;;;;;;;4.45;1.30;;;10.10;84.90;;;;;;5054758;28;20096;-79
2021/12/31 02:24:29;;;;;;;4.35;1.10;;;10.10;85.10;;;;;;5070170;28;20024;-81
2021/12/31 02:26:55;;;;;;;2.35;0.80;;;10.00;85.30;;;;;;5036928;28;20078;-82
2021/12/31 02:29:24;;;;;;;1.73;1.00;;;10.00;85.50;;;;;;5054695;28;20029;-81
2021/12/31 02:31:50;;;;;;;4.85;1.50;;;9.90;85.40;;;;;;5036733;28;20078;-82
2021/12/31 02:34:15;;;;;;;1.23;0.95;;;9.90;85.50;;;;;;5054578;28;20489;-82
2021/12/31 02:36:41;;;;;;;2.28;1.15;;;9.80;85.60;;;;;;5070135;28;20067;-82
2021/12/31 02:39:07;;;;;;;2.63;1.30;;;9.90;85.70;;;;;;5054368;28;20060;-83
2021/12/31 02:41:32;;;;;;;2.13;1.27;;;9.80;85.50;;;;;;5054633;28;20142;-84
2021/12/31 02:43:58;;;;;;;3.38;1.40;;;9.70;85.50;;;;;;5054574;28;20025;-82
2021/12/31 02:46:24;;;;;;;2.80;1.30;;;9.70;85.50;;;;;;5069608;28;20017;-83
2021/12/31 02:48:56;;;;;;;2.72;1.30;;;9.60;85.50;;;;;;5070026;28;20036;-81
2021/12/31 02:51:22;;;;;;;2.00;1.50;;;9.50;85.70;;;;;;5069490;28;20021;-83
2021/12/31 02:53:52;;;;;;;4.25;1.40;;;9.60;85.70;;;;;;5054315;28;20032;-83
2021/12/31 02:56:19;;;;;;;2.28;1.33;;;9.50;85.80;;;;;;5069650;28;20052;-79
2021/12/31 02:58:45;;;;;;;5.38;1.52;;;9.40;86.00;;;;;;5069659;28;20115;-84
2021/12/31 03:01:12;;;;;;;2.85;1.20;;;9.40;86.20;;;;;;5053988;28;20415;-82
2021/12/31 03:03:39;;;;;;;5.28;1.40;;;9.30;86.40;;;;;;5054093;28;20108;-81
2021/12/31 03:06:06;;;;;;;2.00;1.23;;;9.30;86.50;;;;;;5069441;28;20469;-83
2021/12/31 03:08:45;;;;;;;2.70;1.30;;;9.20;86.50;;;;;;5036123;28;20060;-80
2021/12/31 03:11:12;;;;;;;5.00;1.48;;;9.30;86.60;;;;;;5069346;28;20075;-81
2021/12/31 03:13:39;;;;;;;1.30;1.00;;;9.20;86.40;;;;;;5053645;28;20036;-83
2021/12/31 03:16:07;;;;;;;2.33;1.20;;;9.20;86.60;;;;;;5069175;28;20025;-81
2021/12/31 03:18:33;;;;;;;1.20;1.10;;;9.10;86.70;;;;;;5069143;28;20025;-82
2021/12/31 03:21:06;;;;;;;1.95;1.02;;;9.10;86.60;;;;;;5053562;28;20430;-82
2021/12/31 03:23:32;;;;;;;2.53;1.02;;;9.00;86.60;;;;;;5068801;28;20474;-81
2021/12/31 03:25:58;;;;;;;1.42;0.90;;;9.00;86.50;;;;;;5069039;28;20033;-82
2021/12/31 03:28:24;;;;;;;1.58;0.98;;;8.90;86.70;;;;;;5068943;28;20028;-81
2021/12/31 03:30:50;;;;;;;2.97;1.35;;;8.90;86.90;;;;;;5068482;28;20528;-81
2021/12/31 03:33:16;;;;;;;2.63;1.10;;;8.90;86.90;;;;;;5053246;28;20045;-79
2021/12/31 03:35:41;;;;;;;1.67;1.15;;;9.00;86.70;;;;;;5068791;28;20045;-79
2021/12/31 03:38:07;;;;;;;2.83;1.27;;;9.00;85.90;;;;;;5068809;28;20028;-81
2021/12/31 03:40:33;;;;;;;4.88;1.00;;;9.00;88.20;;;;;;5035206;28;20052;-82
2021/12/31 03:42:59;;;;;;;1.65;0.90;;;9.10;89.90;;;;;;5035374;28;20079;-81
2021/12/31 03:45:25;;;;;;;1.35;1.00;;;9.20;88.80;;;;;;5068578;28;20021;-82
2021/12/31 03:47:51;;;;;;;1.40;1.00;;;9.20;87.80;;;;;;5068610;28;20036;-81
2021/12/31 03:50:16;;;;;;;1.60;1.17;;;9.20;87.40;;;;;;5052942;28;20052;-81
2021/12/31 03:52:42;;;;;;;1.15;0.80;;;9.20;86.80;;;;;;5055426;28;20033;-81
2021/12/31 03:55:10;;;;;;;1.42;0.88;;;9.20;86.90;;;;;;5037550;28;20024;-82
2021/12/31 03:57:39;;;;;;;2.65;0.80;;;9.20;87.60;;;;;;5062647;28;20017;-80
2021/12/31 04:00:07;;;;;;;1.23;0.60;;;9.30;90.30;;;;;;5079837;28;20076;-83
2021/12/31 04:02:33;;;;;;;0.85;0.63;;;9.40;89.80;;;;;;5081263;28;20025;-73
2021/12/31 04:04:59;;;;;;;3.15;0.90;;;9.40;89.40;;;;;;5045541;28;20124;-73
2021/12/31 04:07:24;;;;;;;0.70;0.52;;;9.40;89.00;;;;;;5039133;28;20073;-73
2021/12/31 04:09:50;;;;;;;0.73;0.60;;;9.40;88.80;;;;;;5053080;28;20121;-76
2021/12/31 04:12:16;;;;;;;0.80;0.52;;;9.50;88.70;;;;;;5068095;28;20032;-73
2021/12/31 04:14:42;;;;;;;1.05;0.60;;;9.50;88.60;;;;;;5068397;28;20029;-73
2021/12/31 04:17:07;;;;;;;0.40;0.32;;;9.40;88.70;;;;;;5068298;28;20397;-73
2021/12/31 04:19:33;;;;;;;0.82;0.73;;;9.50;88.90;;;;;;5052804;28;20045;-73
2021/12/31 04:21:59;;;;;;;1.45;0.70;;;9.60;89.60;;;;;;5068368;28;20478;-73
2021/12/31 04:24:52;;;;;;;1.50;0.75;;;9.50;89.50;;;;;;5052839;28;20017;-73
2021/12/31 04:27:16;;;;;;;1.25;0.80;;;9.50;89.50;;;;;;5052822;28;20509;-73
2021/12/31 04:29:49;;;;;;;1.10;0.80;;;9.60;89.20;;;;;;5068380;28;20027;-73
2021/12/31 04:32:14;;;;;;;2.05;0.70;;;9.60;89.50;;;;;;5060564;28;20029;-74
2021/12/31 04:34:40;;;;;;;2.25;0.63;;;9.60;89.50;;;;;;5075129;28;20130;-81
2021/12/31 04:37:05;;;;;;;0.93;0.73;;;9.60;89.20;;;;;;5070319;28;20466;-81
2021/12/31 04:39:31;;;;;;;0.70;0.50;;;9.60;89.00;;;;;;5034851;28;20025;-82
2021/12/31 04:41:57;;;;;;;1.42;0.77;;;9.60;88.80;;;;;;5068105;28;20021;-81
2021/12/31 04:44:22;;;;;;;0.75;0.60;;;9.60;88.80;;;;;;5056394;28;20389;-81
2021/12/31 04:46:48;;;;;;;2.22;0.70;;;9.60;88.60;;;;;;5072209;28;20117;-82
2021/12/31 04:49:13;;;;;;;0.98;0.65;;;9.50;88.60;;;;;;5072115;28;20047;-81
2021/12/31 04:51:39;;;;;;;2.13;1.13;;;9.50;88.40;;;;;;5072024;28;20024;-82
2021/12/31 04:54:07;;;;;;;1.73;0.90;;;9.40;88.10;;;;;;5072014;28;20037;-81
2021/12/31 04:56:32;;;;;;;0.85;0.65;;;9.40;88.10;;;;;;5072086;28;20388;-82
2021/12/31 04:58:58;;;;;;;1.27;0.85;;;9.40;88.00;;;;;;5071944;28;20021;-73
2021/12/31 05:01:23;;;;;;;4.45;0.80;;;9.30;87.80;;;;;;5056254;28;20377;-73
2021/12/31 05:03:49;;;;;;;2.25;0.80;;;9.30;87.50;;;;;;5056118;28;20039;-75
2021/12/31 05:06:15;;;;;;;1.95;0.80;;;9.20;88.10;;;;;;5056213;28;20478;-74
2021/12/31 05:08:41;;;;;;;1.60;0.90;;;9.20;87.10;;;;;;5071821;28;20500;-73
2021/12/31 05:11:07;;;;;;;1.63;1.27;;;9.10;86.90;;;;;;5072220;28;20025;-73
2021/12/31 05:13:32;;;;;;;1.60;1.15;;;9.00;86.60;;;;;;5071409;28;20033;-82
2021/12/31 05:16:02;;;;;;;2.95;1.65;;;8.90;86.80;;;;;;5071914;28;20056;-81
2021/12/31 05:18:28;;;;;;;2.20;1.50;;;8.90;87.10;;;;;;5056187;28;20021;-82
2021/12/31 05:20:54;;;;;;;2.65;1.80;;;8.90;87.30;;;;;;5071467;28;20338;-82
2021/12/31 05:23:19;;;;;;;2.00;1.48;;;8.90;87.40;;;;;;5055980;28;20029;-82
2021/12/31 05:25:45;;;;;;;1.73;1.27;;;8.80;87.00;;;;;;5071484;28;20508;-78
2021/12/31 05:28:10;;;;;;;3.22;1.67;;;8.80;86.90;;;;;;5071336;28;20054;-81
2021/12/31 05:30:36;;;;;;;1.52;1.30;;;8.80;86.70;;;;;;5071391;28;20021;-82
2021/12/31 05:33:02;;;;;;;1.88;1.13;;;8.70;86.60;;;;;;5071315;28;20033;-81
2021/12/31 05:35:27;;;;;;;1.63;1.20;;;8.70;86.50;;;;;;5055559;28;20052;-81
2021/12/31 05:37:53;;;;;;;1.40;1.05;;;8.60;86.40;;;;;;5037671;28;20541;-82
2021/12/31 05:40:19;;;;;;;1.75;1.25;;;8.60;86.30;;;;;;5070395;28;20390;-82
2021/12/31 05:42:45;;;;;;;2.55;1.20;;;8.50;86.30;;;;;;5055722;28;20485;-82
2021/12/31 05:45:10;;;;;;;2.75;0.80;;;8.50;86.30;;;;;;5071091;28;20029;-80
2021/12/31 05:47:37;;;;;;;1.58;1.05;;;8.50;86.20;;;;;;5070876;28;20021;-82
2021/12/31 05:50:05;;;;;;;1.58;0.70;;;8.50;86.10;;;;;;5071162;28;20025;-82
2021/12/31 05:52:31;;;;;;;4.65;1.30;;;8.50;86.10;;;;;;5070887;28;20033;-82
2021/12/31 05:54:56;;;;;;;2.17;1.23;;;8.40;85.30;;;;;;5070473;28;20024;-78
2021/12/31 05:57:22;;;;;;;3.35;1.60;;;8.40;85.40;;;;;;5070352;28;20021;-81
2021/12/31 05:59:47;;;;;;;2.72;1.25;;;8.40;85.50;;;;;;5070943;28;20025;-82
2021/12/31 06:02:13;;;;;;;1.48;0.90;;;8.30;85.30;;;;;;5055188;28;20049;-81
2021/12/31 06:04:38;;;;;;;1.40;0.85;;;8.30;85.40;;;;;;5070794;28;20021;-83
2021/12/31 06:07:04;;;;;;;1.60;1.00;;;8.30;85.50;;;;;;5070575;28;20075;-82
2021/12/31 06:09:30;;;;;;;1.40;0.90;;;8.30;85.30;;;;;;5055213;28;20100;-76
2021/12/31 06:11:58;;;;;;;2.03;1.00;;;8.30;85.30;;;;;;5070397;28;20539;-81
2021/12/31 06:14:24;;;;;;;1.60;1.17;;;8.20;85.10;;;;;;5070396;28;20094;-83
2021/12/31 06:16:51;;;;;;;1.10;0.77;;;8.10;85.30;;;;;;5070567;28;20058;-83
2021/12/31 06:19:16;;;;;;;2.10;1.10;;;8.10;85.60;;;;;;5070439;28;20442;-83
2021/12/31 06:21:43;;;;;;;0.98;0.85;;;8.10;85.70;;;;;;5054731;28;20048;-83
2021/12/31 06:24:09;;;;;;;1.50;1.08;;;8.00;85.80;;;;;;5070341;28;20039;-83
2021/12/31 06:26:36;;;;;;;1.95;1.23;;;8.00;85.80;;;;;;5070198;28;20120;-79
2021/12/31 06:29:03;;;;;;;1.20;1.05;;;7.90;86.00;;;;;;5054757;28;20056;-80
2021/12/31 06:31:28;;;;;;;4.25;1.63;;;7.80;86.20;;;;;;5070122;28;20021;-77
2021/12/31 06:33:54;;;;;;;3.05;2.03;;;7.80;86.40;;;;;;5069804;28;20032;-81
2021/12/31 06:36:21;;;;;;;2.80;2.22;;;7.80;87.30;;;;;;5069249;28;20390;-81
2021/12/31 06:38:47;;;;;;;3.72;2.22;;;7.70;87.70;;;;;;5050808;28;20104;-78
2021/12/31 06:41:15;;;;;;;3.15;2.35;;;7.70;87.50;;;;;;5036084;28;20159;-78
2021/12/31 06:43:42;;;;;;;4.43;2.80;;;7.60;87.70;;;;;;5036648;28;20120;-81
2021/12/31 06:46:07;;;;;;;4.28;2.80;;;7.70;87.80;;;;;;5038944;28;20201;-74
2021/12/31 06:48:33;;;;;;;3.80;2.83;;;7.60;87.40;;;;;;5050975;28;20017;-79
2021/12/31 06:50:58;;;;;;;4.10;2.22;;;7.60;87.30;;;;;;5062060;28;20026;-73
2021/12/31 06:53:24;;;;;;;2.95;1.98;;;7.60;87.70;;;;;;5038034;28;20033;-84
2021/12/31 06:55:50;;;;;;;5.78;3.00;;;7.70;88.00;;;;;;5036443;28;20473;-74
2021/12/31 06:58:16;;;;;;;6.70;3.60;;;7.70;88.40;;;;;;5036214;28;20029;-74
2021/12/31 07:00:41;;;;;;;5.95;4.53;;;7.70;88.50;;;;;;5035791;28;20389;-74
2021/12/31 07:03:10;;;;;;;9.25;5.05;;;7.70;89.40;;;;;;5035982;28;20059;-80
2021/12/31 07:05:36;;;;;;;7.25;4.47;;;7.80;89.70;;;;;;5052469;28;20097;-82
2021/12/31 07:08:02;;;;;;;8.80;5.90;;;7.80;89.70;;;;;;5035733;28;20101;-81
2021/12/31 07:10:28;;;;;;;10.82;6.85;;;7.90;89.70;;;;;;5035558;28;20028;-80
2021/12/31 07:13:02;;;;;;;10.88;7.10;;;7.90;89.40;;;;;;5035706;28;20033;-80
2021/12/31 07:15:28;;;;;;;7.55;5.65;;;7.90;89.20;;;;;;5053774;28;20078;-75
2021/12/31 07:17:53;;;;;;;8.27;5.63;;;7.80;89.40;;;;;;5035949;28;20127;-75
2021/12/31 07:20:20;;;;;;;8.57;5.97;;;7.90;89.80;;;;;;5053743;28;20096;-74
2021/12/31 07:22:46;;;;;;;7.85;6.18;;;7.90;90.40;;;;;;5054501;28;20120;-74
2021/12/31 07:25:12;;;;;;;6.82;5.10;;;8.00;92.20;;;;;;5046267;28;20021;-73
2021/12/31 07:27:37;;;;;;;7.32;5.93;;;8.10;92.30;;;;;;5041987;28;20389;-74
2021/12/31 07:30:04;;;;;;;8.10;5.68;;;8.20;92.00;;;;;;5053991;28;20025;-80
2021/12/31 07:32:37;;;;;;;6.00;4.90;;;8.30;91.90;;;;;;5044231;28;20130;-88
2021/12/31 07:35:04;;;;;;;7.43;5.45;;;8.30;92.30;;;;;;5063092;28;20073;-74
2021/12/31 07:37:30;;;;;;;7.32;5.35;;;8.50;92.70;;;;;;5047269;28;20433;-74
2021/12/31 07:40:02;;;;;;;7.13;4.93;;;8.50;92.30;;;;;;5064743;28;20028;-79
2021/12/31 07:42:27;;;;;;;7.55;5.70;;;8.60;91.80;;;;;;5035544;28;20048;-78
2021/12/31 07:44:53;;;;;;;7.35;5.32;;;8.60;90.90;;;;;;5035577;28;20473;-83
2021/12/31 07:47:19;;;;;;;12.60;6.97;;;8.50;89.00;;;;;;5035301;28;20082;-75
2021/12/31 07:49:44;;;;;;;10.00;5.90;;;8.40;87.10;;;;;;5036685;28;20021;-83
2021/12/31 07:52:10;;;;;;;8.25;6.20;;;8.40;87.30;;;;;;5059196;28;20024;-76
2021/12/31 07:54:35;;;;;;;9.23;6.25;;;8.30;87.30;;;;;;5055607;28;20111;-73
2021/12/31 07:57:01;;;;;;;8.00;5.13;;;8.30;87.50;;;;;;5054028;28;20020;-73
2021/12/31 07:59:27;;;;;;;7.45;5.13;;;8.30;87.40;;;;;;5052781;28;20112;-74
2021/12/31 08:01:52;;;;;;;6.85;5.40;;;8.20;86.70;;;;;;5052815;28;20439;-73
2021/12/31 08:04:18;;;;;;;6.55;4.72;;;8.20;87.30;;;;;;5053221;28;20166;-80
2021/12/31 08:06:44;;;;;;;7.13;4.60;;;8.20;87.70;;;;;;5054853;28;20103;-79
2021/12/31 08:09:09;;;;;;;7.20;4.32;;;8.30;88.30;;;;;;5053485;28;20013;-76
2021/12/31 08:11:35;;;;;;;4.97;3.55;;;8.40;87.70;;;;;;5052357;28;20044;-77
2021/12/31 08:14:00;;;;;;;4.07;3.33;;;8.40;87.50;;;;;;5052462;28;20128;-77
2021/12/31 08:16:26;;;;;;;7.38;4.82;;;8.50;87.40;;;;;;5052800;28;20028;-77
2021/12/31 08:18:51;;;;;;;7.70;5.68;;;8.50;86.60;;;;;;5052401;28;20473;-79
2021/12/31 08:21:17;;;;;;;8.60;5.97;;;8.50;86.00;;;;;;5052434;28;20020;-79
2021/12/31 08:23:42;;;;;;;9.20;6.22;;;8.60;85.00;;;;;;5052380;28;20104;-80
2021/12/31 08:26:08;;;;;;;7.32;5.47;;;8.60;84.30;;;;;;5052192;28;20021;-80
2021/12/31 08:28:33;;;;;;;8.02;6.00;;;8.60;84.50;;;;;;5052242;28;20529;-78
2021/12/31 08:30:59;;;;;;;8.52;5.63;;;8.70;84.60;;;;;;5052029;28;20484;-79
2021/12/31 08:33:26;;;;;;;6.75;4.75;;;8.80;84.70;;;;;;5051905;28;20037;-78
2021/12/31 08:35:52;;;;;;;49.35;10.10;;;8.90;84.70;;;;;;5051746;28;20037;-79
2021/12/31 08:38:18;;;;;;;22.45;6.95;;;9.50;96.00;;;;;;5052241;28;20104;-79
2021/12/31 08:40:44;;;;;;;10.27;5.90;;;9.80;95.60;;;;;;5052269;28;20362;-79
2021/12/31 08:43:09;;;;;;;9.68;5.55;;;10.10;91.60;;;;;;5055272;28;20037;-81
2021/12/31 08:45:35;;;;;;;9.05;6.00;;;10.30;88.00;;;;;;5055090;28;20040;-79
2021/12/31 08:48:02;;;;;;;7.82;4.93;;;10.60;85.10;;;;;;5058863;28;20028;-79
2021/12/31 08:50:28;;;;;;;7.03;5.05;;;10.90;83.50;;;;;;5052770;28;20032;-80
2021/12/31 08:52:53;;;;;;;6.55;5.05;;;11.40;81.60;;;;;;5052310;28;20402;-80
2021/12/31 08:55:19;;;;;;;6.07;4.85;;;11.70;80.10;;;;;;5034811;28;20100;-80
2021/12/31 08:57:45;;;;;;;11.93;6.72;;;11.90;78.80;;;;;;5052118;28;20090;-80
2021/12/31 09:00:11;;;;;;;10.48;6.20;;;12.30;77.00;;;;;;5034370;28;20017;-80
2021/12/31 09:02:39;;;;;;;7.97;5.63;;;12.60;76.30;;;;;;5034402;28;20055;-80
2021/12/31 09:05:06;;;;;;;12.20;5.18;;;12.80;74.90;;;;;;5052201;28;20013;-80
2021/12/31 09:07:32;;;;;;;7.57;5.15;;;13.00;74.30;;;;;;5052134;28;20478;-80
2021/12/31 09:09:57;;;;;;;8.00;5.53;;;13.30;73.60;;;;;;5052122;28;20100;-80
2021/12/31 09:12:23;;;;;;;6.03;5.03;;;13.60;73.00;;;;;;5034080;28;20033;-81
2021/12/31 09:14:49;;;;;;;7.95;5.97;;;13.70;71.60;;;;;;5052336;28;20032;-81
2021/12/31 09:17:15;;;;;;;8.48;6.00;;;13.80;70.40;;;;;;5051892;28;20025;-79
2021/12/31 09:19:40;;;;;;;11.95;9.10;;;13.90;70.20;;;;;;5051330;28;20025;-78
2021/12/31 09:22:06;;;;;;;11.25;7.22;;;14.00;68.60;;;;;;5051884;28;20166;-79
2021/12/31 09:24:32;;;;;;;7.63;6.00;;;13.90;68.90;;;;;;5051867;28;20032;-79
2021/12/31 09:26:58;;;;;;;8.00;5.63;;;13.90;69.80;;;;;;5051763;28;20104;-79
2021/12/31 09:29:23;;;;;;;5.75;4.32;;;13.70;70.70;;;;;;5053961;28;20021;-80
2021/12/31 09:31:50;;;;;;;4.47;3.53;;;13.50;71.70;;;;;;5055127;28;20099;-79
2021/12/31 09:34:16;;;;;;;4.70;3.58;;;13.40;71.90;;;;;;5055564;28;20481;-80
2021/12/31 09:36:42;;;;;;;3.97;2.83;;;13.30;72.60;;;;;;5037660;28;20036;-80
2021/12/31 09:39:09;;;;;;;4.15;2.83;;;13.50;72.10;;;;;;5055718;28;20104;-80
2021/12/31 09:41:34;;;;;;;5.63;3.00;;;13.80;71.60;;;;;;5055584;28;20032;-79
2021/12/31 09:44:00;;;;;;;3.45;2.88;;;14.10;71.00;;;;;;5055200;28;20170;-79
2021/12/31 09:46:26;;;;;;;3.67;2.20;;;14.40;70.00;;;;;;5037139;28;20112;-78
2021/12/31 09:48:51;;;;;;;3.42;2.10;;;14.60;68.60;;;;;;5054903;28;20036;-80
2021/12/31 09:51:17;;;;;;;2.75;2.10;;;14.90;67.60;;;;;;5054844;28;20081;-81
2021/12/31 09:53:43;;;;;;;3.78;2.38;;;15.10;67.00;;;;;;5054966;28;20036;-81
2021/12/31 09:56:10;;;;;;;2.85;2.17;;;15.30;66.30;;;;;;5054933;28;20039;-81
2021/12/31 09:58:36;;;;;;;2.90;2.33;;;15.50;65.80;;;;;;5054669;28;20052;-80
2021/12/31 10:01:04;;;;;;;2.60;2.05;;;15.50;65.40;;;;;;5054720;28;20057;-79
2021/12/31 10:03:31;;;;;;;4.13;1.90;;;15.30;65.60;;;;;;5055168;28;20025;-79
2021/12/31 10:05:58;;;;;;;3.92;2.05;;;15.00;66.60;;;;;;5055025;28;20024;-80
2021/12/31 10:08:29;;;;;;;2.85;1.83;;;14.90;68.00;;;;;;5036715;28;20037;-80
2021/12/31 10:11:14;;;;;;;1.88;1.60;;;15.20;67.40;;;;;;5037995;28;20368;-78
2021/12/31 10:13:56;;;;;;;2.38;1.77;;;15.40;66.20;;;;;;5055448;28;20501;-78
2021/12/31 10:16:23;;;;;;;2.90;2.13;;;15.80;65.20;;;;;;5054252;28;20017;-79
2021/12/31 10:18:49;;;;;;;2.47;1.90;;;15.90;64.60;;;;;;5054246;28;20531;-79
2021/12/31 10:21:19;;;;;;;3.13;2.40;;;16.10;64.50;;;;;;5054203;28;20100;-79
2021/12/31 10:23:47;;;;;;;4.75;3.13;;;16.50;63.90;;;;;;5054346;28;20033;-79
2021/12/31 10:26:17;;;;;;;3.22;2.38;;;16.90;62.50;;;;;;5054101;28;20017;-81
2021/12/31 10:28:56;;;;;;;1.33;1.13;;;17.20;60.00;;;;;;5036353;28;20432;-79
2021/12/31 10:31:22;;;;;;;2.10;1.00;;;17.20;57.60;;;;;;5054559;28;20374;-78
2021/12/31 10:33:49;;;;;;;1.48;0.90;;;17.30;56.90;;;;;;5053944;28;20114;-80
2021/12/31 10:36:37;;;;;;;2.10;1.00;;;17.40;56.10;;;;;;5054445;28;20031;-79
2021/12/31 10:39:23;;;;;;;1.20;1.10;;;17.40;55.50;;;;;;5036302;28;20021;-81
2021/12/31 10:42:05;;;;;;;1.35;1.20;;;17.40;55.00;;;;;;5053072;28;20192;-78
2021/12/31 10:44:43;;;;;;;1.55;1.15;;;17.40;54.90;;;;;;5054240;28;20033;-79
2021/12/31 10:47:15;;;;;;;2.53;1.40;;;17.60;53.90;;;;;;5054027;28;20064;-79
2021/12/31 10:50:09;;;;;;;0.70;0.68;;;17.50;53.80;;;;;;5053868;28;20024;-79
2021/12/31 10:52:40;;;;;;;1.35;1.25;;;17.40;54.90;;;;;;5052136;28;20037;-78
2021/12/31 10:55:19;;;;;;;3.03;2.42;;;17.40;55.90;;;;;;5053732;28;20025;-79
2021/12/31 10:57:52;;;;;;;3.72;2.15;;;17.50;56.70;;;;;;5053875;28;20462;-79
2021/12/31 11:00:20;;;;;;;3.38;2.67;;;17.50;56.40;;;;;;5053641;28;20025;-79
2021/12/31 11:02:47;;;;;;;3.22;2.92;;;17.70;56.50;;;;;;5053837;28;20418;-77
2021/12/31 11:05:15;;;;;;;4.78;2.78;;;17.70;55.60;;;;;;5053772;28;20082;-79
2021/12/31 11:07:41;;;;;;;3.00;2.58;;;17.80;56.30;;;;;;5053852;28;20197;-78
2021/12/31 11:10:09;;;;;;;3.58;2.42;;;18.10;55.60;;;;;;5055236;28;20021;-76
2021/12/31 11:12:34;;;;;;;3.58;2.33;;;18.70;53.90;;;;;;5063741;28;20047;-77
2021/12/31 11:15:01;;;;;;;4.32;2.13;;;19.20;52.30;;;;;;5064232;28;20029;-76
2021/12/31 11:17:27;;;;;;;1.90;1.77;;;19.40;51.60;;;;;;5054234;28;20025;-79
2021/12/31 11:19:53;;;;;;;4.85;2.50;;;20.10;49.30;;;;;;5055165;28;20508;-82
2021/12/31 11:22:24;;;;;;;12.20;2.95;;;21.40;47.30;;;;;;5036394;28;20052;-83
2021/12/31 11:24:50;;;;;;;8.40;3.03;;;22.70;43.50;;;;;;5036210;28;20040;-83
2021/12/31 11:27:34;;;;;;;3.85;1.80;;;23.90;39.70;;;;;;5054195;28;20037;-86
2021/12/31 11:30:01;;;;;;;16.52;3.08;;;25.20;36.70;;;;;;5054269;28;20044;-85
2021/12/31 11:32:42;;;;;;;6.15;2.45;;;26.40;34.10;;;;;;5053786;28;20420;-79
2021/12/31 11:35:44;;;;;;;27.95;2.35;;;27.50;31.50;;;;;;5053559;28;20053;-80
2021/12/31 11:38:22;;;;;;;2.30;1.83;;;28.50;29.70;;;;;;5053506;28;20021;-80
2021/12/31 11:41:00;;;;;;;6.07;1.55;;;29.70;27.60;;;;;;5053084;28;20485;-76
2021/12/31 11:43:29;;;;;;;14.02;1.83;;;30.60;25.40;;;;;;5053051;28;20040;-74
2021/12/31 11:46:10;;;;;;;5.78;1.80;;;31.50;23.70;;;;;;5052864;28;20045;-74
2021/12/31 11:48:47;;;;;;;2.83;1.10;;;32.30;22.20;;;;;;5052990;28;20029;-78
2021/12/31 11:51:28;;;;;;;7.38;1.55;;;33.00;21.00;;;;;;5052564;28;20021;-73
2021/12/31 11:54:06;;;;;;;2.25;1.33;;;33.70;20.00;;;;;;5052960;28;20489;-73
2021/12/31 11:56:47;;;;;;;3.22;1.52;;;34.40;18.90;;;;;;5053141;28;20036;-76
2021/12/31 11:59:24;;;;;;;3.35;1.17;;;35.10;18.50;;;;;;5052734;28;20028;-81
2021/12/31 12:02:15;;;;;;;2.88;1.50;;;35.70;17.50;;;;;;5052581;28;20484;-75
2021/12/31 12:05:00;;;;;;;1.58;1.38;;;36.30;17.10;;;;;;5052774;28;20029;-76
2021/12/31 12:07:36;;;;;;;1.57;1.33;;;37.00;16.60;;;;;;5052535;28;20083;-76
2021/12/31 12:10:02;;;;;;;2.03;1.17;;;37.70;15.70;;;;;;5052603;28;20290;-77
2021/12/31 12:12:29;;;;;;;3.80;1.55;;;38.30;15.10;;;;;;5052311;28;20477;-74
2021/12/31 12:14:56;;;;;;;1.45;1.35;;;38.90;14.20;;;;;;5052811;28;20112;-75
2021/12/31 12:17:28;;;;;;;1.02;0.93;;;39.60;13.90;;;;;;5052509;28;20021;-74
2021/12/31 12:20:02;;;;;;;1.20;0.93;;;39.90;13.10;;;;;;5052655;28;20033;-74
2021/12/31 12:22:37;;;;;;;2.78;1.20;;;40.30;12.70;;;;;;5052319;28;20032;-74
2021/12/31 12:25:11;;;;;;;2.58;0.60;;;40.30;12.00;;;;;;5052267;28;20082;-74
2021/12/31 12:27:38;;;;;;;2.33;0.82;;;40.60;11.50;;;;;;5052159;28;20338;-74
2021/12/31 12:30:07;;;;;;;0.73;0.73;;;40.60;10.60;;;;;;5034100;28;20074;-74
2021/12/31 12:32:39;;;;;;;2.33;0.90;;;41.20;10.70;;;;;;5051968;28;20538;-75
2021/12/31 12:35:23;;;;;;;7.45;1.13;;;42.00;10.40;;;;;;5052079;28;20079;-75
2021/12/31 12:38:33;;;;;;;8.93;2.30;;;42.00;9.10;;;;;;5034463;28;20025;-75
2021/12/31 12:41:09;;;;;;;4.25;1.55;;;41.80;9.00;;;;;;5035792;28;20405;-76
2021/12/31 12:43:45;;;;;;;9.35;2.40;;;41.20;9.70;;;;;;5053102;28;20023;-75
2021/12/31 12:46:13;;;;;;;5.55;1.30;;;38.70;10.50;;;;;;5052040;28;20377;-74
2021/12/31 12:48:42;;;;;;;8.02;1.70;;;37.40;12.00;;;;;;5034194;28;20406;-74
2021/12/31 12:51:13;;;;;;;0.90;0.85;;;36.40;13.20;;;;;;5051901;28;20078;-74
2021/12/31 12:53:45;;;;;;;3.38;1.05;;;36.70;13.30;;;;;;5051873;28;20083;-74
2021/12/31 12:56:15;;;;;;;0.80;0.60;;;37.00;13.50;;;;;;5052146;28;20127;-74